createdAt,value
2018-04-24T03:22:10.990Z,15.81
2018-04-24T03:23:11.026Z,15.75
2018-04-24T03:24:10.980Z,15.78
2018-04-24T03:25:11.071Z,15.70
2018-04-24T03:26:10.957Z,15.64
2018-04-24T03:27:10.946Z,15.94
2018-04-24T03:28:10.928Z,15.67
2018-04-24T03:29:10.971Z,15.70
2018-04-24T03:30:10.918Z,15.46
2018-04-24T03:31:10.950Z,15.48
2018-04-24T03:32:10.921Z,15.59
2018-04-24T03:33:10.966Z,15.68
2018-04-24T03:34:10.951Z,15.70
2018-04-24T03:35:10.927Z,15.96
2018-04-24T03:36:10.919Z,15.78
2018-04-24T03:37:10.927Z,15.66
2018-04-24T03:38:10.897Z,15.64
2018-04-24T03:39:10.897Z,15.57
2018-04-24T03:40:10.898Z,15.67
2018-04-24T03:41:10.895Z,15.72
2018-04-24T03:42:10.930Z,15.68
2018-04-24T03:43:10.895Z,15.60
2018-04-24T03:44:10.892Z,15.49
2018-04-24T03:45:10.919Z,15.70
2018-04-24T03:46:10.894Z,15.60
2018-04-24T03:47:10.919Z,15.60
2018-04-24T03:48:10.931Z,15.96
2018-04-24T03:49:10.896Z,15.82
2018-04-24T03:50:10.927Z,15.52
2018-04-24T03:51:10.909Z,15.41
2018-04-24T03:52:10.891Z,15.26
2018-04-24T03:53:10.885Z,15.20
2018-04-24T03:54:10.889Z,15.39
2018-04-24T03:55:10.892Z,15.36
2018-04-24T03:56:10.910Z,15.41
2018-04-24T03:57:10.944Z,15.30
2018-04-24T03:58:10.893Z,15.63
2018-04-24T03:59:10.927Z,15.57
2018-04-24T04:00:10.923Z,15.60
2018-04-24T04:01:10.896Z,15.78
2018-04-24T04:02:10.928Z,15.89
2018-04-24T04:03:10.946Z,15.82
2018-04-24T04:04:10.910Z,15.85
2018-04-24T04:05:10.926Z,15.94
2018-04-24T04:06:10.953Z,15.92
2018-04-24T04:07:10.891Z,15.68
2018-04-24T04:08:10.878Z,15.72
2018-04-24T04:09:10.895Z,15.70
2018-04-24T04:10:10.898Z,15.60
2018-04-24T04:11:10.886Z,15.46
2018-04-24T04:12:10.904Z,15.52
2018-04-24T04:13:19.619Z,15.49
2018-04-24T04:15:04.372Z,15.24
2018-04-24T04:16:04.325Z,15.36
2018-04-24T04:17:04.312Z,15.45
2018-04-24T04:18:04.369Z,15.51
2018-04-24T04:19:04.286Z,15.70
2018-04-24T04:20:04.281Z,15.82
2018-04-24T04:21:04.292Z,15.86
2018-04-24T04:22:04.286Z,15.60
2018-04-24T04:23:04.290Z,15.64
2018-04-24T04:24:04.299Z,15.68
2018-04-24T04:25:04.305Z,15.92
